Time;durP1;ratioP1;P1;durP2;ratioP2;P2;SDS_P1;SDS_P2;PMS_P1;PMS_P2;Temp;Humidity;BMP_temperature;BMP_pressure;BME280_temperature;BME280_humidity;BME280_pressure;Samples;Min_cycle;Max_cycle;Signal;HPM_P1;HPM_P2
2021/11/24 00:00:47;;;;;;;65.92;30.40;;;;;;;-1.91;100.00;100715.17;1711908;83;21591;-75
2021/11/24 00:03:14;;;;;;;50.03;22.70;;;;;;;-1.91;100.00;100719.03;1711773;82;22308;-76
2021/11/24 00:05:41;;;;;;;56.60;25.80;;;;;;;-1.90;100.00;100718.19;1712225;83;21065;-73
2021/11/24 00:08:07;;;;;;;53.98;25.52;;;;;;;-1.91;100.00;100721.63;1712106;83;21173;-73
2021/11/24 00:10:35;;;;;;;63.75;28.67;;;;;;;-1.94;100.00;100727.98;1707165;83;21077;-73
2021/11/24 00:13:03;;;;;;;76.17;32.98;;;;;;;-1.98;100.00;100731.35;1707680;84;21041;-75
2021/11/24 00:15:30;;;;;;;69.92;30.20;;;;;;;-1.98;100.00;100731.35;1685477;84;21199;-76
2021/11/24 00:17:57;;;;;;;63.65;25.70;;;;;;;-1.99;100.00;100734.75;1717604;81;21076;-74
2021/11/24 00:20:23;;;;;;;62.83;29.37;;;;;;;-1.99;100.00;100724.42;1725263;83;21506;-76
2021/11/24 00:22:50;;;;;;;55.83;25.45;;;;;;;-1.92;100.00;100728.03;1724974;83;21045;-74
2021/11/24 00:25:16;;;;;;;70.80;30.48;;;;;;;-1.87;100.00;100735.87;1725260;83;21663;-75
2021/11/24 00:36:54;;;;;;;67.10;27.80;;;;;;;-1.81;100.00;100741.20;1813250;79;22707;-74
2021/11/24 00:39:21;;;;;;;68.15;28.92;;;;;;;-1.84;100.00;100746.27;1781018;80;21069;-74
2021/11/24 00:41:48;;;;;;;73.60;29.80;;;;;;;-1.84;100.00;100743.69;1761610;81;21131;-74
2021/11/24 00:44:15;;;;;;;93.05;35.68;;;;;;;-1.84;100.00;100756.59;1761446;81;21013;-74
2021/11/24 00:46:42;;;;;;;81.12;32.53;;;;;;;-1.85;100.00;100747.12;1761356;81;21594;-74
2021/11/24 00:49:09;;;;;;;76.62;31.23;;;;;;;-1.80;100.00;100748.09;1761773;81;21029;-74
2021/11/24 00:51:37;;;;;;;82.15;34.63;;;;;;;-1.79;100.00;100742.11;1758624;81;21033;-74
2021/11/24 00:54:04;;;;;;;96.40;35.70;;;;;;;-1.81;100.00;100746.36;1731223;82;21640;-75
2021/11/24 00:56:31;;;;;;;77.95;31.42;;;;;;;-1.82;100.00;100744.17;1731166;82;21057;-74
2021/11/24 00:58:57;;;;;;;74.43;31.00;;;;;;;-1.81;100.00;100743.77;1731362;82;21029;-73
2021/11/24 01:01:24;;;;;;;96.87;36.38;;;;;;;-1.80;100.00;100744.22;1744796;81;21380;-74
2021/11/24 01:03:50;;;;;;;86.70;33.23;;;;;;;-1.81;100.00;100745.93;1729804;81;21058;-74
2021/11/24 01:06:20;;;;;;;77.15;29.45;;;;;;;-1.84;100.00;100747.55;1725423;83;22107;-74
2021/11/24 01:08:46;;;;;;;74.57;28.93;;;;;;;-1.85;100.00;100746.69;1725510;83;21046;-73
2021/11/24 01:11:12;;;;;;;74.70;30.17;;;;;;;-1.82;100.00;100745.89;1725722;83;21082;-73
2021/11/24 01:13:41;;;;;;;81.72;32.28;;;;;;;-1.81;100.00;100744.64;1725365;83;21152;-74
2021/11/24 01:16:08;;;;;;;89.42;34.48;;;;;;;-1.78;100.00;100746.42;1731887;81;21059;-73
2021/11/24 01:18:36;;;;;;;74.58;29.98;;;;;;;-1.77;100.00;100749.05;1755373;80;22040;-74
2021/11/24 01:21:03;;;;;;;84.32;34.83;;;;;;;-1.76;100.00;100751.20;1755768;81;21066;-75
2021/11/24 01:23:29;;;;;;;73.72;29.67;;;;;;;-1.70;100.00;100747.48;1755580;81;21066;-74
2021/11/24 01:25:58;;;;;;;96.15;34.00;;;;;;;-1.66;100.00;100747.98;1752389;81;21081;-75
2021/11/24 01:28:25;;;;;;;87.67;32.42;;;;;;;-1.65;100.00;100747.58;1754747;81;21057;-73
2021/11/24 01:30:51;;;;;;;76.57;31.17;;;;;;;-1.62;100.00;100761.42;1748550;81;21083;-76
2021/11/24 01:33:18;;;;;;;86.82;32.65;;;;;;;-1.65;100.00;100753.61;1741934;81;21651;-75
2021/11/24 01:35:44;;;;;;;80.00;29.90;;;;;;;-1.81;100.00;100724.41;1749627;81;21016;-75
2021/11/24 01:38:11;;;;;;;78.75;31.95;;;;;;;-1.67;100.00;100750.13;1741916;82;21036;-75
2021/11/24 01:40:38;;;;;;;76.62;31.60;;;;;;;-1.70;100.00;100752.22;1742685;82;21717;-73
2021/11/24 01:43:08;;;;;;;84.52;33.55;;;;;;;-1.70;100.00;100747.48;1742238;82;21020;-74
2021/11/24 01:45:37;;;;;;;77.37;29.90;;;;;;;-1.71;100.00;100751.75;1721988;82;21032;-75
2021/11/24 01:48:05;;;;;;;67.67;27.50;;;;;;;-1.69;100.00;100755.23;1741619;82;21056;-75
2021/11/24 01:50:32;;;;;;;76.53;30.25;;;;;;;-1.66;100.00;100756.16;1741806;82;21567;-74
2021/11/24 01:52:58;;;;;;;76.82;30.10;;;;;;;-1.63;100.00;100758.80;1741981;82;22318;-74
2021/11/24 01:55:25;;;;;;;71.60;28.98;;;;;;;-1.62;100.00;100751.09;1731098;82;21540;-75
2021/11/24 01:57:52;;;;;;;61.00;26.05;;;;;;;-1.59;100.00;100758.03;1741927;82;21527;-75
2021/11/24 02:00:29;;;;;;;71.40;28.75;;;;;;;-1.57;100.00;100753.77;1741912;82;21025;-75
2021/11/24 02:02:55;;;;;;;69.20;28.05;;;;;;;-1.55;100.00;100756.84;1742050;82;21076;-75
2021/11/24 02:05:23;;;;;;;76.00;31.62;;;;;;;-1.54;100.00;100756.02;1742011;82;21056;-75
2021/11/24 02:07:50;;;;;;;85.00;31.95;;;;;;;-1.51;100.00;100757.37;1742067;82;21520;-74
2021/11/24 02:10:21;;;;;;;97.30;36.33;;;;;;;-1.48;100.00;100753.55;1741919;82;21035;-76
2021/11/24 02:12:48;;;;;;;71.75;30.05;;;;;;;-1.45;100.00;100748.86;1742181;82;21020;-75
2021/11/24 02:15:15;;;;;;;78.05;33.13;;;;;;;-1.45;100.00;100751.45;1741938;82;21028;-76
2021/11/24 02:17:44;;;;;;;76.90;31.68;;;;;;;-1.43;100.00;100754.08;1741905;82;22121;-75
2021/11/24 02:20:37;;;;;;;89.65;34.67;;;;;;;-1.39;100.00;100752.02;1742354;82;21982;-75
2021/11/24 02:23:05;;;;;;;78.60;31.70;;;;;;;-1.37;100.00;100754.22;1739178;82;21071;-77
2021/11/24 02:25:32;;;;;;;71.33;31.52;;;;;;;-1.33;100.00;100757.33;1742178;82;21063;-76
2021/11/24 02:27:59;;;;;;;87.85;34.92;;;;;;;-1.30;100.00;100765.13;1742114;82;21032;-72
2021/11/24 02:30:25;;;;;;;72.95;30.50;;;;;;;-1.31;100.00;100765.56;1741778;82;21020;-73
2021/11/24 02:32:52;;;;;;;77.08;32.35;;;;;;;-1.30;100.00;100766.42;1742080;80;21502;-71
2021/11/24 02:35:19;;;;;;;95.00;36.80;;;;;;;-1.33;100.00;100765.08;1741370;81;21035;-73
2021/11/24 02:37:46;;;;;;;108.63;39.83;;;;;;;-1.35;100.00;100759.00;1730593;81;21094;-73
2021/11/24 02:40:13;;;;;;;90.25;35.15;;;;;;;-1.39;100.00;100766.23;1743442;81;21059;-72
2021/11/24 02:42:40;;;;;;;102.65;39.25;;;;;;;-1.42;100.00;100759.72;1738933;81;21051;-72
2021/11/24 02:45:08;;;;;;;83.72;35.83;;;;;;;-1.40;100.00;100764.47;1749321;81;21580;-73
2021/11/24 02:47:36;;;;;;;95.17;37.42;;;;;;;-1.39;100.00;100764.94;1731200;81;21181;-73
2021/11/24 02:50:04;;;;;;;104.03;40.45;;;;;;;-1.33;100.00;100766.37;1720403;83;21173;-74
2021/11/24 02:52:32;;;;;;;82.22;33.83;;;;;;;-1.27;100.00;100775.13;1720497;82;21069;-74
2021/11/24 02:55:01;;;;;;;101.62;39.00;;;;;;;-1.23;100.00;100783.80;1720640;83;21082;-73
2021/11/24 02:57:39;;;;;;;85.22;33.78;;;;;;;-1.20;100.00;100782.99;1720458;83;21093;-73
2021/11/24 03:00:16;;;;;;;93.15;35.80;;;;;;;-1.17;100.00;100785.66;1720270;83;21109;-73
2021/11/24 03:02:44;;;;;;;87.05;33.33;;;;;;;-1.17;100.00;100790.41;1718474;83;21081;-73
2021/11/24 03:05:11;;;;;;;76.70;32.67;;;;;;;-1.19;100.00;100785.63;1720626;83;21045;-73
2021/11/24 03:07:38;;;;;;;87.45;33.53;;;;;;;-1.19;100.00;100792.51;1720223;83;21752;-73
2021/11/24 03:10:05;;;;;;;87.75;34.73;;;;;;;-1.20;100.00;100788.16;1720861;83;21846;-73
2021/11/24 03:12:33;;;;;;;79.82;33.25;;;;;;;-1.16;100.00;100793.42;1728418;82;21119;-73
2021/11/24 03:15:01;;;;;;;97.37;39.63;;;;;;;-1.16;100.00;100790.84;1735116;82;21032;-73
2021/11/24 03:17:27;;;;;;;96.55;37.45;;;;;;;-1.15;100.00;100797.78;1734778;82;21111;-73
2021/11/24 03:19:57;;;;;;;83.87;31.90;;;;;;;-1.19;100.00;100789.50;1735083;82;21051;-73
2021/11/24 03:22:26;;;;;;;99.07;35.92;;;;;;;-1.15;100.00;100796.48;1734752;82;22220;-73
2021/11/24 03:24:57;;;;;;;92.72;38.42;;;;;;;-1.15;100.00;100797.78;1735444;82;22255;-73
2021/11/24 03:27:30;;;;;;;79.20;31.27;;;;;;;-1.12;100.00;100793.95;1734670;82;21046;-71
2021/11/24 03:29:58;;;;;;;87.40;33.40;;;;;;;-1.14;100.00;100802.52;1735239;82;21023;-74
2021/11/24 03:32:25;;;;;;;93.65;38.05;;;;;;;-1.12;100.00;100802.13;1745670;81;21519;-71
2021/11/24 03:34:52;;;;;;;95.72;35.25;;;;;;;-1.10;100.00;100799.16;1755998;81;22108;-72
2021/11/24 03:37:19;;;;;;;99.05;38.33;;;;;;;-1.10;100.00;100797.45;1739667;81;21547;-72
2021/11/24 03:39:47;;;;;;;90.65;34.27;;;;;;;-1.09;100.00;100806.94;1741667;82;21120;-72
2021/11/24 03:42:14;;;;;;;86.97;33.70;;;;;;;-1.08;100.00;100815.16;1705862;84;21555;-70
2021/11/24 03:44:41;;;;;;;79.45;32.42;;;;;;;-1.06;100.00;100818.66;1705734;84;21101;-71
2021/11/24 03:47:08;;;;;;;99.10;38.88;;;;;;;-1.00;100.00;100814.02;1705783;83;22001;-71
2021/11/24 03:49:36;;;;;;;103.97;39.83;;;;;;;-0.98;100.00;100812.77;1706054;83;21093;-72
2021/11/24 03:52:04;;;;;;;109.25;39.13;;;;;;;-0.94;100.00;100809.41;1706273;84;21093;-73
2021/11/24 03:54:32;;;;;;;95.25;36.73;;;;;;;-0.93;100.00;100809.84;1706403;84;21526;-74
2021/11/24 03:56:59;;;;;;;113.72;44.20;;;;;;;-0.91;100.00;100814.63;1706192;83;21631;-73
2021/11/24 03:59:26;;;;;;;99.55;38.42;;;;;;;-0.89;100.00;100811.66;1706079;83;21139;-73
2021/11/24 04:01:55;;;;;;;104.30;37.85;;;;;;;-0.91;100.00;100822.39;1706166;84;21050;-71
2021/11/24 04:04:22;;;;;;;113.25;42.55;;;;;;;-0.89;100.00;100829.34;1706328;83;21505;-71
2021/11/24 04:06:50;;;;;;;85.77;32.45;;;;;;;-0.85;100.00;100814.77;1706246;84;21604;-71
2021/11/24 04:09:16;;;;;;;95.20;34.63;;;;;;;-0.88;100.00;100818.56;1706442;84;21082;-72
2021/11/24 04:11:43;;;;;;;107.80;40.95;;;;;;;-0.88;100.00;100827.61;1706253;84;21525;-70
2021/11/24 04:14:11;;;;;;;99.58;38.55;;;;;;;-0.91;100.00;100835.31;1706168;84;21061;-71
2021/11/24 04:16:38;;;;;;;123.62;43.98;;;;;;;-0.87;100.00;100831.97;1705956;84;21055;-73
2021/11/24 04:19:05;;;;;;;118.42;46.68;;;;;;;-0.90;100.00;100826.70;1706455;84;21148;-72
2021/11/24 04:21:32;;;;;;;117.93;43.33;;;;;;;-0.92;100.00;100834.45;1705968;83;21042;-72
2021/11/24 04:24:00;;;;;;;105.75;40.25;;;;;;;-0.91;100.00;100836.61;1709932;82;21178;-74
2021/11/24 04:26:27;;;;;;;116.25;44.10;;;;;;;-0.91;100.00;100831.02;1735146;82;21081;-75
2021/11/24 04:28:54;;;;;;;104.15;41.40;;;;;;;-0.96;100.00;100831.77;1741214;80;21328;-68
2021/11/24 04:31:20;;;;;;;106.25;40.48;;;;;;;-0.99;100.00;100836.86;1714567;82;21088;-67
2021/11/24 04:33:47;;;;;;;105.05;40.12;;;;;;;-1.02;100.00;100830.34;1678093;84;21072;-67
2021/11/24 04:36:14;;;;;;;108.45;40.60;;;;;;;-1.06;100.00;100839.33;1709064;83;21460;-69
2021/11/24 04:38:41;;;;;;;88.78;35.30;;;;;;;-1.08;100.00;100834.55;1672037;85;21034;-69
2021/11/24 04:41:08;;;;;;;109.07;41.15;;;;;;;-1.09;100.00;100837.95;1706297;83;21085;-69
2021/11/24 04:43:42;;;;;;;80.25;32.70;;;;;;;-1.10;100.00;100829.76;1671759;85;21086;-68
2021/11/24 04:46:03;;;;;;;99.37;40.78;;;;;;;-1.11;100.00;100839.63;1704344;83;21093;-69
2021/11/24 04:48:30;;;;;;;99.45;39.63;;;;;;;-1.11;100.00;100827.13;1671116;85;21527;-69
2021/11/24 04:50:57;;;;;;;98.58;38.13;;;;;;;-1.09;100.00;100839.25;1707033;82;21495;-68
2021/11/24 04:53:23;;;;;;;102.07;40.85;;;;;;;-1.10;100.00;100837.52;1672931;85;20983;-68
2021/11/24 04:55:50;;;;;;;104.20;41.80;;;;;;;-1.12;100.00;100839.19;1706979;83;21033;-68
2021/11/24 04:58:18;;;;;;;105.55;39.83;;;;;;;-1.12;100.00;100835.73;1673191;85;20999;-67
2021/11/24 05:00:45;;;;;;;104.97;41.13;;;;;;;-1.12;100.00;100836.61;1672375;85;21742;-67
2021/11/24 05:03:12;;;;;;;124.53;47.27;;;;;;;-1.12;100.00;100849.53;1706328;84;21588;-68
2021/11/24 05:05:38;;;;;;;105.92;40.10;;;;;;;-1.12;100.00;100844.36;1706465;84;21073;-68
2021/11/24 05:08:06;;;;;;;109.70;42.75;;;;;;;-1.12;100.00;100849.53;1672938;84;21028;-68
2021/11/24 05:10:34;;;;;;;106.30;41.25;;;;;;;-1.11;100.00;100853.84;1712122;83;21549;-68
2021/11/24 05:13:00;;;;;;;111.77;43.20;;;;;;;-1.09;100.00;100856.05;1732097;82;21299;-68
2021/11/24 05:15:32;;;;;;;125.58;47.40;;;;;;;-1.08;100.00;100859.11;1741710;82;21046;-68
2021/11/24 05:18:05;;;;;;;114.35;46.63;;;;;;;-1.06;100.00;100854.84;1736928;82;20998;-68
2021/11/24 05:20:29;;;;;;;107.80;41.20;;;;;;;-1.04;100.00;100854.86;1726083;82;21144;-68
2021/11/24 05:23:00;;;;;;;122.02;40.78;;;;;;;-1.04;100.00;100852.70;1705230;83;21050;-67
2021/11/24 05:25:27;;;;;;;94.70;38.73;;;;;;;-1.04;100.00;100848.82;1736887;82;21580;-66
2021/11/24 05:27:54;;;;;;;108.45;42.73;;;;;;;-1.06;100.00;100848.38;1733268;82;21554;-66
2021/11/24 05:30:23;;;;;;;90.00;35.03;;;;;;;-1.05;100.00;100854.41;1734979;81;21022;-69
2021/11/24 05:32:50;;;;;;;120.13;45.03;;;;;;;-1.01;100.00;100860.51;1733120;82;21102;-68
2021/11/24 05:35:21;;;;;;;102.10;41.00;;;;;;;-0.95;100.00;100860.66;1731098;82;21107;-67
2021/11/24 05:37:48;;;;;;;108.45;40.75;;;;;;;-0.93;100.00;100862.85;1705697;83;21098;-67
2021/11/24 05:40:15;;;;;;;136.90;51.77;;;;;;;-0.90;100.00;100855.15;1709264;83;21062;-68
2021/11/24 05:42:48;;;;;;;154.05;54.35;;;;;;;-0.92;100.00;100861.61;1747639;82;21068;-69
2021/11/24 05:45:14;;;;;;;147.72;54.88;;;;;;;-0.94;100.00;100865.00;1736696;82;21152;-69
2021/11/24 05:47:55;;;;;;;125.35;47.50;;;;;;;-0.92;100.00;100866.78;1741422;81;21028;-66
2021/11/24 05:50:22;;;;;;;139.10;52.13;;;;;;;-0.97;100.00;100863.63;1748596;81;21077;-66
2021/11/24 05:52:50;;;;;;;119.95;44.23;;;;;;;-0.98;100.00;100864.47;1737514;81;21115;-68
2021/11/24 05:55:17;;;;;;;110.52;44.85;;;;;;;-0.99;100.00;100869.17;1745985;81;21050;-72
2021/11/24 05:57:44;;;;;;;98.03;40.30;;;;;;;-0.96;100.00;100880.90;1741507;81;21054;-73
2021/11/24 06:00:13;;;;;;;84.75;34.15;;;;;;;-0.93;100.00;100888.71;1747220;81;21097;-73
2021/11/24 06:02:40;;;;;;;91.12;36.98;;;;;;;-0.87;100.00;100881.09;1749355;82;21082;-73
2021/11/24 06:05:08;;;;;;;118.67;44.38;;;;;;;-0.81;100.00;100887.67;1749518;81;21094;-73
2021/11/24 06:07:35;;;;;;;84.75;34.80;;;;;;;-0.76;100.00;100891.25;1706902;83;21140;-73
2021/11/24 06:10:06;;;;;;;91.90;36.63;;;;;;;-0.73;100.00;100884.84;1673585;84;21074;-73
2021/11/24 06:12:33;;;;;;;98.35;39.27;;;;;;;-0.66;100.00;100891.88;1674566;84;21078;-72
2021/11/24 06:15:00;;;;;;;105.10;43.92;;;;;;;-0.67;100.00;100903.09;1749308;81;21109;-73
2021/11/24 06:17:26;;;;;;;119.30;48.02;;;;;;;-0.61;100.00;100894.99;1741799;82;21167;-73
2021/11/24 06:19:56;;;;;;;106.25;45.25;;;;;;;-0.59;100.00;100892.02;1714207;83;21078;-73
2021/11/24 06:22:22;;;;;;;111.15;45.43;;;;;;;-0.54;100.00;100887.81;1713448;83;21065;-72
2021/11/24 06:24:50;;;;;;;102.32;41.18;;;;;;;-0.49;100.00;100884.88;1713886;82;21563;-72
2021/11/24 06:27:17;;;;;;;106.85;44.53;;;;;;;-0.45;100.00;100894.03;1713391;83;21529;-73
2021/11/24 06:29:44;;;;;;;112.42;46.88;;;;;;;-0.40;100.00;100888.95;1748163;81;21023;-73
2021/11/24 06:32:12;;;;;;;119.90;46.85;;;;;;;-0.34;100.00;100894.25;1748005;82;21043;-70
2021/11/24 06:34:39;;;;;;;116.80;46.68;;;;;;;-0.27;100.00;100898.70;1745711;80;21107;-70
2021/11/24 06:37:06;;;;;;;111.55;45.75;;;;;;;-0.22;100.00;100894.91;1748199;82;21047;-70
2021/11/24 06:39:33;;;;;;;112.52;47.58;;;;;;;-0.17;100.00;100892.41;1748766;80;22408;-70
2021/11/24 06:41:59;;;;;;;109.63;48.05;;;;;;;-0.14;100.00;100896.34;1736577;81;21602;-71
2021/11/24 06:44:26;;;;;;;123.95;50.73;;;;;;;-0.09;100.00;100899.88;1727578;81;21077;-70
2021/11/24 06:46:53;;;;;;;115.97;48.58;;;;;;;-0.08;100.00;100900.34;1720778;81;21557;-71
2021/11/24 06:49:20;;;;;;;107.80;46.83;;;;;;;-0.08;100.00;100896.47;1749376;81;21049;-71
2021/11/24 06:51:47;;;;;;;114.47;45.55;;;;;;;-0.04;100.00;100898.27;1741660;80;21130;-71
2021/11/24 06:54:16;;;;;;;100.25;42.85;;;;;;;-0.04;100.00;100893.09;1749550;81;21090;-71
2021/11/24 06:56:44;;;;;;;109.15;47.20;;;;;;;-0.06;100.00;100893.48;1723869;80;22180;-70
2021/11/24 06:59:11;;;;;;;93.75;41.77;;;;;;;-0.08;100.00;100895.17;1741099;81;21112;-70
2021/11/24 07:01:38;;;;;;;95.15;41.37;;;;;;;-0.09;100.00;100894.70;1734766;82;21518;-70
2021/11/24 07:04:05;;;;;;;94.35;42.95;;;;;;;-0.09;100.00;100896.00;1747111;81;21495;-70
2021/11/24 07:06:33;;;;;;;103.50;48.68;;;;;;;-0.08;100.00;100897.76;1747824;82;21040;-70
2021/11/24 07:09:00;;;;;;;102.12;43.90;;;;;;;-0.07;100.00;100895.61;1746433;82;21594;-70
2021/11/24 07:11:30;;;;;;;100.30;43.65;;;;;;;-0.01;100.00;100903.50;1744351;81;21552;-71
2021/11/24 07:13:58;;;;;;;94.32;42.90;;;;;;;0.03;100.00;100907.89;1746811;81;20999;-70
2021/11/24 07:16:25;;;;;;;95.72;43.45;;;;;;;0.05;100.00;100900.16;1748345;80;21089;-70
2021/11/24 07:18:52;;;;;;;100.18;45.85;;;;;;;0.07;100.00;100907.12;1748633;81;21055;-70
2021/11/24 07:21:20;;;;;;;82.17;37.60;;;;;;;0.11;100.00;100908.89;1748794;81;21007;-70
2021/11/24 07:23:47;;;;;;;96.50;42.53;;;;;;;0.14;100.00;100908.09;1747097;81;21578;-72
2021/11/24 07:26:14;;;;;;;110.28;42.93;;;;;;;0.17;100.00;100907.71;1738651;81;21663;-72
2021/11/24 07:28:41;;;;;;;83.80;36.35;;;;;;;0.21;100.00;100907.36;1747454;81;22157;-72
2021/11/24 07:31:08;;;;;;;86.45;35.73;;;;;;;0.26;100.00;100910.03;1749785;81;21674;-72
2021/11/24 07:33:34;;;;;;;80.62;35.73;;;;;;;0.29;100.00;100907.48;1747975;81;21078;-72
2021/11/24 07:36:01;;;;;;;76.97;32.48;;;;;;;0.35;100.00;100916.67;1749737;81;21121;-73
2021/11/24 07:38:28;;;;;;;101.02;41.48;;;;;;;0.37;100.00;100914.98;1744308;81;21051;-73
2021/11/24 07:40:55;;;;;;;87.80;37.48;;;;;;;0.38;100.00;100920.59;1734032;82;21103;-72
2021/11/24 07:43:22;;;;;;;89.90;38.48;;;;;;;0.33;100.00;100902.81;1740539;82;21084;-74
2021/11/24 07:45:50;;;;;;;94.35;42.67;;;;;;;0.47;100.00;100919.89;1737261;82;21062;-74
2021/11/24 07:48:17;;;;;;;105.70;48.30;;;;;;;0.49;100.00;100915.61;1739274;82;21033;-74
2021/11/24 07:50:44;;;;;;;100.92;43.28;;;;;;;0.53;100.00;100911.80;1734552;82;21645;-74
2021/11/24 07:53:11;;;;;;;104.30;46.15;;;;;;;0.58;100.00;100911.44;1735419;82;21707;-74
2021/11/24 07:55:37;;;;;;;109.22;50.05;;;;;;;0.59;100.00;100918.78;1738619;82;21541;-74
2021/11/24 07:58:06;;;;;;;110.97;48.90;;;;;;;0.62;100.00;100920.12;1740375;82;21065;-73
2021/11/24 08:00:33;;;;;;;100.18;42.27;;;;;;;0.66;100.00;100920.63;1734743;82;21524;-74
2021/11/24 08:03:00;;;;;;;94.72;42.43;;;;;;;0.71;100.00;100919.39;1729949;82;21091;-74
2021/11/24 08:05:27;;;;;;;102.45;43.00;;;;;;;0.75;100.00;100919.90;1742471;82;21014;-73
2021/11/24 08:07:55;;;;;;;86.53;37.73;;;;;;;0.78;100.00;100922.53;1734839;82;21017;-74
2021/11/24 08:10:23;;;;;;;83.70;38.78;;;;;;;0.80;100.00;100924.73;1738562;82;21068;-74
2021/11/24 08:12:50;;;;;;;88.97;39.38;;;;;;;0.86;100.00;100926.56;1732829;82;21309;-73
2021/11/24 08:15:18;;;;;;;80.47;36.58;;;;;;;0.92;100.00;100926.23;1727661;82;21072;-76
2021/11/24 08:17:45;;;;;;;78.52;35.38;;;;;;;1.00;100.00;100925.04;1738756;80;21142;-73
2021/11/24 08:20:13;;;;;;;61.05;28.38;;;;;;;1.04;100.00;100927.70;1738712;82;20993;-73
2021/11/24 08:22:40;;;;;;;74.22;35.08;;;;;;;1.09;100.00;100928.20;1737333;82;21108;-73
2021/11/24 08:25:08;;;;;;;75.60;36.63;;;;;;;1.17;100.00;100920.08;1740857;82;21040;-73
2021/11/24 08:27:36;;;;;;;79.40;36.83;;;;;;;1.31;100.00;100926.36;1730078;82;21037;-74
2021/11/24 08:30:05;;;;;;;74.77;34.10;;;;;;;1.41;100.00;100925.61;1733581;82;21320;-74
2021/11/24 08:32:31;;;;;;;71.02;32.78;;;;;;;1.54;100.00;100923.16;1729835;82;21056;-74
2021/11/24 08:34:59;;;;;;;57.98;30.50;;;;;;;1.65;100.00;100924.17;1740690;82;21058;-73
2021/11/24 08:37:26;;;;;;;70.75;34.48;;;;;;;1.74;100.00;100920.81;1699135;83;21110;-74
2021/11/24 08:39:54;;;;;;;74.42;36.77;;;;;;;1.68;100.00;100911.24;1666715;85;21104;-73
2021/11/24 08:42:21;;;;;;;66.62;33.78;;;;;;;1.68;100.00;100911.24;1649986;85;21519;-74
2021/11/24 08:44:47;;;;;;;69.60;32.48;;;;;;;1.72;100.00;100915.59;1666588;85;21114;-73
2021/11/24 08:47:14;;;;;;;73.70;34.85;;;;;;;1.77;100.00;100919.14;1662627;85;21137;-73
2021/11/24 08:49:41;;;;;;;62.55;32.33;;;;;;;1.85;100.00;100913.59;1647033;85;21094;-73
2021/11/24 08:52:08;;;;;;;58.95;30.85;;;;;;;1.96;100.00;100906.36;1677479;84;21584;-69
2021/11/24 08:54:37;;;;;;;63.73;32.70;;;;;;;2.02;100.00;100896.00;1676334;85;22005;-69
2021/11/24 08:57:06;;;;;;;65.47;33.53;;;;;;;2.14;100.00;100903.94;1640874;85;21058;-69
2021/11/24 08:59:33;;;;;;;44.63;24.85;;;;;;;2.28;100.00;100894.55;1711355;82;21066;-69
2021/11/24 09:01:59;;;;;;;52.48;25.90;;;;;;;2.41;100.00;100892.91;1715427;82;21043;-69
2021/11/24 09:04:26;;;;;;;45.12;22.20;;;;;;;2.54;100.00;100899.09;1715295;82;21653;-70
2021/11/24 09:06:52;;;;;;;48.52;24.05;;;;;;;2.65;100.00;100901.34;1680748;84;21204;-70
2021/11/24 09:09:20;;;;;;;49.70;26.87;;;;;;;2.77;100.00;100897.97;1676109;83;21083;-73
2021/11/24 09:11:47;;;;;;;43.35;22.07;;;;;;;2.86;100.00;100899.33;1673174;83;21077;-73
2021/11/24 09:14:15;;;;;;;44.48;24.63;;;;;;;2.93;100.00;100897.64;1713808;82;21081;-73
2021/11/24 09:16:43;;;;;;;40.35;20.77;;;;;;;2.97;100.00;100898.11;1720565;82;21074;-71
2021/11/24 09:19:11;;;;;;;46.95;25.43;;;;;;;3.02;100.00;100899.00;1708724;82;21128;-71
2021/11/24 09:21:39;;;;;;;51.83;26.85;;;;;;;3.08;100.00;100901.65;1709891;82;21046;-71
2021/11/24 09:24:13;;;;;;;37.38;20.62;;;;;;;3.13;100.00;100898.64;1713012;82;21073;-72
2021/11/24 09:26:56;;;;;;;47.05;25.65;;;;;;;3.18;100.00;100901.70;1704621;82;21050;-72
2021/11/24 09:29:14;;;;;;;44.65;24.37;;;;;;;3.14;100.00;100904.70;1699580;82;22289;-71
2021/11/24 09:31:41;;;;;;;43.95;21.82;;;;;;;3.13;100.00;100897.77;1709363;82;21124;-72
2021/11/24 09:34:08;;;;;;;43.73;22.73;;;;;;;3.20;100.00;100905.16;1705907;82;21049;-72
2021/11/24 09:36:35;;;;;;;40.12;21.60;;;;;;;3.31;100.00;100896.97;1705039;82;21526;-72
2021/11/24 09:39:02;;;;;;;39.15;21.33;;;;;;;3.42;100.00;100899.20;1729756;82;21088;-71
2021/11/24 09:41:28;;;;;;;33.90;19.02;;;;;;;3.67;100.00;100894.10;1745013;82;21093;-72
2021/11/24 09:43:56;;;;;;;30.72;16.30;;;;;;;4.01;100.00;100896.81;1741608;81;21494;-73
2021/11/24 09:46:24;;;;;;;27.62;15.75;;;;;;;4.28;100.00;100897.27;1742798;82;21093;-72
2021/11/24 09:48:53;;;;;;;22.02;13.68;;;;;;;4.97;100.00;100901.15;1745909;82;21092;-72
2021/11/24 09:51:20;;;;;;;24.35;14.73;;;;;;;5.65;100.00;100893.98;1744230;82;21089;-72
2021/11/24 09:53:48;;;;;;;21.52;13.10;;;;;;;6.27;99.69;100893.22;1741685;82;21124;-74
2021/11/24 09:56:16;;;;;;;20.90;12.45;;;;;;;6.98;97.31;100891.31;1748419;81;21097;-72
2021/11/24 09:58:43;;;;;;;20.30;12.58;;;;;;;7.67;97.99;100884.83;1746546;80;21631;-72
2021/11/24 10:01:10;;;;;;;17.15;11.48;;;;;;;8.26;91.41;100885.30;1751483;80;21088;-72
2021/11/24 10:03:38;;;;;;;18.37;11.22;;;;;;;8.75;88.03;100881.92;1747442;81;21149;-73
2021/11/24 10:06:05;;;;;;;19.20;12.65;;;;;;;9.28;84.07;100886.62;1747215;80;21721;-72
2021/11/24 10:08:33;;;;;;;19.92;12.63;;;;;;;9.61;80.21;100877.17;1685914;82;71495;-71
2021/11/24 10:11:01;;;;;;;20.05;12.28;;;;;;;9.74;76.64;100875.16;1679941;83;21059;-72
2021/11/24 10:13:28;;;;;;;18.15;12.20;;;;;;;9.71;76.66;100877.87;1671626;83;21096;-72
2021/11/24 10:15:57;;;;;;;19.35;11.85;;;;;;;10.00;76.26;100867.99;1699901;83;21525;-72
2021/11/24 10:18:33;;;;;;;21.45;11.70;;;;;;;10.11;73.44;100873.02;1694449;83;21131;-71
2021/11/24 10:21:14;;;;;;;17.37;12.20;;;;;;;9.92;72.13;100878.30;1686279;84;21126;-71
2021/11/24 10:23:46;;;;;;;18.10;12.90;;;;;;;9.55;73.45;100873.38;1687989;84;22189;-71
2021/11/24 10:26:38;;;;;;;18.17;12.28;;;;;;;9.25;73.49;100877.50;1689538;84;21142;-71
2021/11/24 10:29:11;;;;;;;22.17;11.28;;;;;;;8.86;75.13;100881.29;1658365;86;21693;-71
2021/11/24 10:31:44;;;;;;;18.77;12.95;;;;;;;8.63;77.23;100882.11;1665627;85;21118;-71
2021/11/24 10:34:28;;;;;;;17.25;11.50;;;;;;;8.18;75.45;100877.11;1683875;85;21187;-70
2021/11/24 10:37:06;;;;;;;19.70;12.93;;;;;;;7.77;77.51;100867.21;1662663;84;21095;-71
2021/11/24 10:39:42;;;;;;;19.12;12.55;;;;;;;7.41;78.83;100867.23;1647309;86;21601;-71
2021/11/24 10:42:27;;;;;;;20.43;13.53;;;;;;;7.24;79.79;100867.00;1618225;86;21074;-70
2021/11/24 10:44:59;;;;;;;18.60;11.55;;;;;;;7.09;79.93;100871.13;1621428;88;21061;-71
2021/11/24 10:47:27;;;;;;;24.40;12.18;;;;;;;6.93;82.31;100870.41;1665252;85;22012;-70
2021/11/24 10:49:57;;;;;;;19.17;12.98;;;;;;;6.73;83.85;100866.67;1675679;85;21056;-71
2021/11/24 10:52:37;;;;;;;21.65;13.38;;;;;;;6.59;84.09;100872.03;1654465;85;21108;-72
2021/11/24 10:55:21;;;;;;;21.68;13.32;;;;;;;6.45;85.04;100875.22;1671886;85;21091;-71
2021/11/24 10:58:07;;;;;;;21.48;13.50;;;;;;;6.26;86.46;100872.74;1659386;85;21147;-70
2021/11/24 11:00:41;;;;;;;21.70;14.03;;;;;;;6.07;88.28;100869.81;1654334;85;21550;-71
2021/11/24 11:03:09;;;;;;;24.27;14.80;;;;;;;5.91;89.12;100868.14;1656253;85;21097;-71
2021/11/24 11:05:36;;;;;;;25.50;13.68;;;;;;;5.77;88.04;100870.84;1646976;87;22317;-70
2021/11/24 11:08:06;;;;;;;18.15;11.57;;;;;;;5.63;88.51;100873.52;1613574;88;21805;-70
2021/11/24 11:10:44;;;;;;;21.80;13.90;;;;;;;5.52;90.02;100868.37;1622014;88;21110;-70
2021/11/24 11:13:20;;;;;;;24.57;14.80;;;;;;;5.46;91.50;100864.47;1675215;85;21796;-70
2021/11/24 11:15:49;;;;;;;20.95;12.45;;;;;;;5.36;92.06;100870.17;1653947;86;21142;-70